Time;durP1;ratioP1;P1;durP2;ratioP2;P2;SDS_P1;SDS_P2;PMS_P1;PMS_P2;Temp;Humidity;BMP_temperature;BMP_pressure;BME280_temperature;BME280_humidity;BME280_pressure;Samples;Min_cycle;Max_cycle;Signal;HPM_P1;HPM_P2
2022/12/31 00:01:41;;;;;;;11.30;5.40;;;;;;;;;;103051;1307;22532;-77
2022/12/31 00:04:07;;;;;;;11.00;5.20;;;;;;;;;;103496;1305;24272;-79
2022/12/31 00:06:35;;;;;;;11.40;5.20;;;;;;;;;;103586;1304;22446;-79
2022/12/31 00:09:03;;;;;;;11.20;4.80;;;;;;;;;;103510;1306;22472;-79
2022/12/31 00:11:31;;;;;;;10.30;4.40;;;;;;;;;;103720;1305;22474;-83
2022/12/31 00:13:58;;;;;;;10.70;4.30;;;;;;;;;;103568;1306;24234;-80
2022/12/31 00:16:26;;;;;;;10.20;4.10;;;;;;;;;;103736;1305;21762;-82
2022/12/31 00:18:54;;;;;;;10.00;3.60;;;;;;;;;;103544;1307;25531;-80
2022/12/31 00:21:21;;;;;;;9.00;3.70;;;;;;;;;;103511;1307;22550;-81
2022/12/31 00:23:48;;;;;;;8.90;3.40;;;;;;;;;;103777;1294;22471;-79
2022/12/31 00:26:17;;;;;;;9.00;3.20;;;;;;;;;;103498;1304;25327;-76
2022/12/31 00:28:44;;;;;;;8.50;3.20;;;;;;;;;;103511;1300;22926;-80
2022/12/31 00:31:19;;;;;;;7.60;2.90;;;;;;;;;;103553;1306;22473;-79
2022/12/31 00:33:46;;;;;;;8.00;3.20;;;;;;;;;;103718;1307;22458;-80
2022/12/31 00:36:17;;;;;;;8.20;2.90;;;;;;;;;;103747;1299;24308;-84
2022/12/31 00:38:45;;;;;;;9.50;3.20;;;;;;;;;;103736;1280;22462;-80
2022/12/31 00:41:13;;;;;;;7.10;2.60;;;;;;;;;;103750;1307;22455;-82
2022/12/31 00:43:41;;;;;;;8.60;2.90;;;;;;;;;;103562;1301;22748;-77
2022/12/31 00:46:08;;;;;;;7.90;2.90;;;;;;;;;;103761;1306;22822;-78
2022/12/31 00:48:35;;;;;;;7.30;2.70;;;;;;;;;;103533;1307;25479;-77
2022/12/31 00:51:02;;;;;;;8.20;3.10;;;;;;;;;;103696;1306;25280;-82
2022/12/31 00:53:29;;;;;;;7.30;2.70;;;;;;;;;;103515;1298;22481;-84
2022/12/31 00:56:04;;;;;;;6.60;2.60;;;;;;;;;;103491;1306;22478;-77
2022/12/31 00:58:31;;;;;;;6.50;2.50;;;;;;;;;;103547;1307;25285;-80
2022/12/31 01:00:58;;;;;;;6.90;2.40;;;;;;;;;;103539;1307;22472;-78
2022/12/31 01:03:24;;;;;;;6.00;2.40;;;;;;;;;;103535;1292;24820;-83
2022/12/31 01:05:51;;;;;;;7.00;2.50;;;;;;;;;;103427;1307;22633;-80
2022/12/31 01:08:17;;;;;;;7.20;2.60;;;;;;;;;;103482;1306;24317;-79
2022/12/31 01:13:35;;;;;;;6.20;2.30;;;;;;;;;;103534;1307;25441;-79
2022/12/31 01:16:06;;;;;;;6.70;2.40;;;;;;;;;;103518;1310;22470;-80
2022/12/31 01:18:33;;;;;;;6.30;2.40;;;;;;;;;;103488;1283;22515;-83
2022/12/31 01:21:00;;;;;;;6.80;2.30;;;;;;;;;;103536;1294;22723;-81
2022/12/31 01:23:28;;;;;;;6.70;2.30;;;;;;;;;;103523;1310;22461;-80
2022/12/31 01:25:54;;;;;;;5.90;2.30;;;;;;;;;;103546;1306;24273;-82
2022/12/31 01:28:21;;;;;;;6.20;2.20;;;;;;;;;;103464;1307;24822;-83
2022/12/31 01:30:47;;;;;;;6.60;2.50;;;;;;;;;;103565;1307;24311;-81
2022/12/31 01:33:14;;;;;;;7.60;3.00;;;;;;;;;;103535;1301;22466;-85
2022/12/31 01:35:41;;;;;;;7.90;2.80;;;;;;;;;;103733;1307;22475;-82
2022/12/31 01:38:08;;;;;;;7.20;2.50;;;;;;;;;;103565;1289;22461;-83
2022/12/31 01:40:36;;;;;;;8.70;2.90;;;;;;;;;;103555;1309;22474;-84
2022/12/31 01:43:05;;;;;;;7.40;2.60;;;;;;;;;;103531;1310;26465;-82
2022/12/31 01:45:32;;;;;;;8.40;2.80;;;;;;;;;;103577;1307;22428;-83
2022/12/31 01:47:58;;;;;;;7.40;2.60;;;;;;;;;;103509;1304;22460;-79
2022/12/31 01:50:27;;;;;;;7.00;2.60;;;;;;;;;;103445;1307;25319;-78
2022/12/31 01:52:57;;;;;;;7.10;2.50;;;;;;;;;;103443;1307;23851;-82
2022/12/31 01:55:32;;;;;;;7.40;2.70;;;;;;;;;;103525;1307;24226;-84
2022/12/31 01:58:07;;;;;;;10.40;3.80;;;;;;;;;;103575;1306;23848;-77
2022/12/31 02:00:34;;;;;;;8.90;3.70;;;;;;;;;;103366;1310;24269;-83
2022/12/31 02:03:02;;;;;;;7.20;3.00;;;;;;;;;;103568;1310;22567;-81
2022/12/31 02:05:35;;;;;;;8.00;3.00;;;;;;;;;;103772;1308;22585;-78
2022/12/31 02:08:02;;;;;;;7.60;2.80;;;;;;;;;;103549;1310;22466;-82
2022/12/31 02:10:29;;;;;;;7.50;2.70;;;;;;;;;;103531;1308;22475;-79
2022/12/31 02:12:55;;;;;;;6.90;2.60;;;;;;;;;;103492;1307;24324;-83
2022/12/31 02:15:29;;;;;;;7.60;3.10;;;;;;;;;;103540;1310;22550;-80
2022/12/31 02:18:10;;;;;;;7.70;3.20;;;;;;;;;;103549;1306;25318;-82
2022/12/31 02:20:39;;;;;;;8.00;3.50;;;;;;;;;;103466;1305;22447;-78
2022/12/31 02:23:30;;;;;;;7.50;3.00;;;;;;;;;;103746;1303;24234;-85
2022/12/31 02:26:16;;;;;;;8.40;3.10;;;;;;;;;;103468;1307;22464;-81
2022/12/31 02:29:01;;;;;;;8.20;3.30;;;;;;;;;;103455;1307;22476;-75
2022/12/31 02:31:31;;;;;;;9.00;3.70;;;;;;;;;;103476;1310;22467;-79
2022/12/31 02:34:05;;;;;;;7.90;3.30;;;;;;;;;;103578;1294;24738;-77
2022/12/31 02:36:33;;;;;;;8.80;3.50;;;;;;;;;;103533;1310;24022;-81
2022/12/31 02:39:01;;;;;;;8.50;3.60;;;;;;;;;;103434;1312;25250;-80
2022/12/31 02:44:32;;;;;;;9.90;3.90;;;;;;;;;;103302;1304;23843;-82
2022/12/31 02:47:08;;;;;;;11.30;4.40;;;;;;;;;;103470;1292;23014;-78
2022/12/31 02:49:37;;;;;;;9.40;4.40;;;;;;;;;;103446;1306;22940;-83
2022/12/31 02:52:12;;;;;;;11.80;5.30;;;;;;;;;;103675;1304;22495;-79
2022/12/31 02:54:43;;;;;;;10.10;4.20;;;;;;;;;;103549;1307;25264;-79
2022/12/31 02:57:14;;;;;;;8.80;4.10;;;;;;;;;;103758;1294;22462;-78
2022/12/31 03:02:38;;;;;;;11.90;6.20;;;;;;;;;;103540;1306;24183;-85
2022/12/31 03:05:07;;;;;;;12.90;6.30;;;;;;;;;;103471;1306;22453;-81
2022/12/31 03:07:33;;;;;;;10.30;5.00;;;;;;;;;;103296;1309;22488;-82
2022/12/31 03:10:00;;;;;;;10.70;4.10;;;;;;;;;;103496;1306;22476;-85
2022/12/31 03:12:47;;;;;;;9.50;4.20;;;;;;;;;;103360;1307;25320;-82
2022/12/31 03:15:20;;;;;;;8.10;3.70;;;;;;;;;;103473;1301;22472;-78
2022/12/31 03:17:49;;;;;;;10.00;3.90;;;;;;;;;;103473;1306;23839;-79
2022/12/31 03:23:04;;;;;;;8.80;4.00;;;;;;;;;;103476;1306;22479;-80
2022/12/31 03:25:39;;;;;;;8.40;3.30;;;;;;;;;;103355;1307;24285;-80
2022/12/31 03:28:08;;;;;;;8.60;3.50;;;;;;;;;;103344;1307;22505;-83
2022/12/31 03:30:36;;;;;;;9.30;3.20;;;;;;;;;;103495;1301;22457;-84
2022/12/31 03:33:04;;;;;;;9.10;3.80;;;;;;;;;;103483;1306;23059;-81
2022/12/31 03:35:31;;;;;;;8.50;3.70;;;;;;;;;;103438;1306;22461;-79
2022/12/31 03:37:58;;;;;;;7.70;3.30;;;;;;;;;;103366;1304;22429;-79
2022/12/31 03:40:26;;;;;;;7.80;3.10;;;;;;;;;;103482;1302;23069;-77
2022/12/31 03:42:53;;;;;;;7.80;3.10;;;;;;;;;;103533;1306;24234;-76
2022/12/31 03:45:20;;;;;;;7.40;3.10;;;;;;;;;;103495;1282;25231;-78
2022/12/31 03:47:47;;;;;;;8.80;3.20;;;;;;;;;;103517;1306;24325;-84
2022/12/31 03:50:15;;;;;;;7.90;3.40;;;;;;;;;;103484;1285;22480;-80
2022/12/31 03:52:43;;;;;;;8.50;3.40;;;;;;;;;;103504;1299;22469;-80
2022/12/31 03:55:12;;;;;;;10.00;3.50;;;;;;;;;;103477;1307;22546;-80
2022/12/31 03:57:40;;;;;;;8.60;2.90;;;;;;;;;;103562;1298;22472;-85
2022/12/31 04:00:08;;;;;;;6.20;2.50;;;;;;;;;;103438;1306;23846;-83
2022/12/31 04:02:35;;;;;;;7.70;2.70;;;;;;;;;;103355;1301;26432;-84
2022/12/31 04:05:02;;;;;;;7.00;2.60;;;;;;;;;;103257;1309;24354;-80
2022/12/31 04:07:29;;;;;;;7.90;3.20;;;;;;;;;;103379;1307;24252;-78
2022/12/31 04:09:56;;;;;;;7.20;2.90;;;;;;;;;;103363;1308;22542;-79
2022/12/31 04:12:23;;;;;;;7.80;3.00;;;;;;;;;;103378;1285;24210;-83
2022/12/31 04:14:50;;;;;;;8.20;3.30;;;;;;;;;;103412;1306;24386;-79
2022/12/31 04:17:16;;;;;;;7.10;2.90;;;;;;;;;;103508;1306;25534;-79
2022/12/31 04:19:43;;;;;;;8.30;3.30;;;;;;;;;;103464;1291;23775;-82
2022/12/31 04:22:10;;;;;;;7.80;3.20;;;;;;;;;;103430;1305;22614;-81
2022/12/31 04:24:37;;;;;;;8.40;3.50;;;;;;;;;;103437;1306;22455;-78
2022/12/31 04:27:04;;;;;;;8.10;3.50;;;;;;;;;;103394;1306;22465;-82
2022/12/31 04:29:30;;;;;;;8.20;3.10;;;;;;;;;;103470;1295;22586;-78
2022/12/31 04:31:57;;;;;;;7.60;3.30;;;;;;;;;;103310;1307;22488;-83
2022/12/31 04:34:24;;;;;;;6.80;2.60;;;;;;;;;;103428;1307;22485;-82
2022/12/31 04:36:50;;;;;;;7.20;2.90;;;;;;;;;;103298;1308;24341;-78
2022/12/31 04:39:17;;;;;;;7.60;2.80;;;;;;;;;;103469;1308;25353;-84
2022/12/31 04:41:43;;;;;;;6.80;2.90;;;;;;;;;;103367;1306;24392;-82
2022/12/31 04:44:10;;;;;;;8.50;3.20;;;;;;;;;;103248;1307;22557;-79
2022/12/31 04:46:37;;;;;;;8.10;2.70;;;;;;;;;;103175;1306;25394;-78
2022/12/31 04:49:03;;;;;;;6.60;2.50;;;;;;;;;;103286;1306;22478;-82
2022/12/31 04:51:30;;;;;;;5.60;2.10;;;;;;;;;;103458;1304;25320;-79
2022/12/31 04:53:57;;;;;;;5.50;1.90;;;;;;;;;;103336;1300;22729;-82
2022/12/31 04:56:24;;;;;;;5.50;2.00;;;;;;;;;;103390;1307;22476;-82
2022/12/31 04:58:51;;;;;;;6.10;2.10;;;;;;;;;;103350;1308;22484;-78
2022/12/31 05:01:18;;;;;;;5.50;1.80;;;;;;;;;;103449;1308;23899;-83
2022/12/31 05:03:45;;;;;;;4.90;1.70;;;;;;;;;;103400;1306;24173;-78
2022/12/31 05:06:22;;;;;;;4.50;1.60;;;;;;;;;;103196;1306;22462;-77
2022/12/31 05:08:48;;;;;;;5.80;1.60;;;;;;;;;;103495;1306;25301;-81
2022/12/31 05:11:15;;;;;;;6.10;1.90;;;;;;;;;;103516;1307;25245;-82
2022/12/31 05:13:43;;;;;;;5.10;1.90;;;;;;;;;;103473;1306;22587;-80
2022/12/31 05:16:09;;;;;;;5.90;2.30;;;;;;;;;;103485;1306;23854;-79
2022/12/31 05:18:36;;;;;;;6.20;2.10;;;;;;;;;;103485;1306;22494;-88
2022/12/31 05:21:03;;;;;;;5.40;2.20;;;;;;;;;;103413;1306;25349;-81
2022/12/31 05:23:30;;;;;;;6.60;2.20;;;;;;;;;;102376;1306;1640095;-79
2022/12/31 05:25:58;;;;;;;6.60;2.40;;;;;;;;;;103447;1306;24241;-85
2022/12/31 05:28:25;;;;;;;6.70;2.30;;;;;;;;;;103450;1305;24327;-79
2022/12/31 05:30:52;;;;;;;6.40;2.80;;;;;;;;;;103429;1306;22475;-79
2022/12/31 05:33:18;;;;;;;7.30;3.80;;;;;;;;;;103518;1306;24279;-78
2022/12/31 05:35:45;;;;;;;9.80;4.90;;;;;;;;;;103491;1306;22464;-83
2022/12/31 05:38:12;;;;;;;11.00;6.20;;;;;;;;;;103480;1306;25218;-80
2022/12/31 05:40:39;;;;;;;9.60;5.10;;;;;;;;;;103479;1306;26039;-77
2022/12/31 05:43:05;;;;;;;8.70;4.40;;;;;;;;;;103437;1306;25233;-82
2022/12/31 05:45:32;;;;;;;7.60;3.50;;;;;;;;;;103499;1306;22518;-79
2022/12/31 05:47:58;;;;;;;7.00;3.20;;;;;;;;;;103546;1306;22472;-82
2022/12/31 05:50:25;;;;;;;6.70;3.00;;;;;;;;;;103513;1291;25207;-82
2022/12/31 05:52:56;;;;;;;6.40;2.80;;;;;;;;;;103420;1307;25553;-78
2022/12/31 05:55:22;;;;;;;7.70;2.80;;;;;;;;;;103473;1306;24295;-78
2022/12/31 05:57:49;;;;;;;6.80;3.00;;;;;;;;;;103461;1306;22480;-81
2022/12/31 06:00:16;;;;;;;6.90;3.00;;;;;;;;;;103506;1306;22614;-82
2022/12/31 06:02:43;;;;;;;7.90;3.30;;;;;;;;;;103514;1291;25307;-81
2022/12/31 06:05:10;;;;;;;7.60;2.70;;;;;;;;;;103508;1307;22439;-76
2022/12/31 06:07:37;;;;;;;6.70;2.70;;;;;;;;;;103761;1305;25189;-80
2022/12/31 06:10:04;;;;;;;7.50;3.00;;;;;;;;;;103747;1305;22509;-83
2022/12/31 06:12:31;;;;;;;6.80;2.50;;;;;;;;;;103782;1304;25299;-77
2022/12/31 06:14:57;;;;;;;6.20;2.60;;;;;;;;;;103571;1306;22708;-77
2022/12/31 06:17:24;;;;;;;7.80;2.90;;;;;;;;;;103444;1306;22492;-84
2022/12/31 06:19:51;;;;;;;7.90;2.90;;;;;;;;;;103508;1306;24104;-78
2022/12/31 06:22:17;;;;;;;8.40;2.80;;;;;;;;;;103383;1306;25307;-83
2022/12/31 06:24:44;;;;;;;6.50;3.00;;;;;;;;;;103498;1307;22484;-84
2022/12/31 06:27:11;;;;;;;6.10;2.70;;;;;;;;;;103515;1306;22508;-80
2022/12/31 06:29:38;;;;;;;7.40;3.30;;;;;;;;;;103540;1304;25177;-79
2022/12/31 06:32:05;;;;;;;7.40;3.30;;;;;;;;;;103530;1307;22488;-83
2022/12/31 06:34:31;;;;;;;9.70;3.30;;;;;;;;;;103475;1306;25326;-78
2022/12/31 06:36:58;;;;;;;9.60;3.40;;;;;;;;;;103407;1309;24296;-81
2022/12/31 06:39:26;;;;;;;6.90;3.30;;;;;;;;;;103497;1306;22464;-80
2022/12/31 06:41:53;;;;;;;7.00;3.10;;;;;;;;;;103500;1305;22513;-80
2022/12/31 06:44:21;;;;;;;7.10;3.20;;;;;;;;;;103476;1304;22470;-84
2022/12/31 06:46:48;;;;;;;6.70;3.10;;;;;;;;;;103569;1305;25363;-81
2022/12/31 06:49:16;;;;;;;7.20;3.10;;;;;;;;;;103822;1304;22595;-82
2022/12/31 06:51:44;;;;;;;6.70;2.70;;;;;;;;;;103784;1304;24237;-80
2022/12/31 06:54:12;;;;;;;5.80;2.50;;;;;;;;;;103515;1306;22465;-78
2022/12/31 06:56:39;;;;;;;5.40;2.50;;;;;;;;;;103368;1306;25540;-79
2022/12/31 06:59:14;;;;;;;5.40;2.30;;;;;;;;;;103443;1306;22486;-83
2022/12/31 07:01:43;;;;;;;5.30;2.10;;;;;;;;;;103407;1306;25243;-78
2022/12/31 07:04:22;;;;;;;5.40;2.00;;;;;;;;;;103403;1306;22444;-77
2022/12/31 07:07:08;;;;;;;4.90;1.90;;;;;;;;;;103445;1306;22465;-80
2022/12/31 07:09:51;;;;;;;4.50;1.80;;;;;;;;;;103495;1301;22881;-82
2022/12/31 07:12:33;;;;;;;5.20;1.60;;;;;;;;;;103527;1305;22516;-82
2022/12/31 07:15:00;;;;;;;6.40;1.60;;;;;;;;;;103754;1305;22501;-79
2022/12/31 07:17:30;;;;;;;6.40;2.30;;;;;;;;;;103364;1306;22471;-78
2022/12/31 07:19:56;;;;;;;4.90;1.40;;;;;;;;;;103257;1303;24461;-81
2022/12/31 07:22:23;;;;;;;7.90;1.50;;;;;;;;;;103260;1306;23847;-79
2022/12/31 07:24:50;;;;;;;3.20;1.20;;;;;;;;;;103445;1306;22476;-77
2022/12/31 07:27:37;;;;;;;3.00;1.10;;;;;;;;;;103523;1302;24301;-78
2022/12/31 07:30:04;;;;;;;4.80;1.50;;;;;;;;;;103499;1307;25311;-80
2022/12/31 07:32:31;;;;;;;3.30;1.10;;;;;;;;;;103701;1307;24244;-79
2022/12/31 07:35:04;;;;;;;4.30;0.90;;;;;;;;;;103488;1306;25334;-83
2022/12/31 07:37:50;;;;;;;3.30;1.20;;;;;;;;;;103416;1304;22481;-79
2022/12/31 07:40:29;;;;;;;4.30;1.20;;;;;;;;;;103466;1300;23331;-86
2022/12/31 07:43:01;;;;;;;5.50;1.40;;;;;;;;;;103500;1306;22478;-83
2022/12/31 07:45:28;;;;;;;6.10;1.60;;;;;;;;;;103520;1301;22440;-77
2022/12/31 07:47:55;;;;;;;4.10;1.20;;;;;;;;;;103744;1304;22470;-81
2022/12/31 07:50:21;;;;;;;5.60;1.40;;;;;;;;;;103780;1305;22595;-83
2022/12/31 07:52:48;;;;;;;6.90;1.40;;;;;;;;;;103506;1300;22709;-80
2022/12/31 07:55:15;;;;;;;4.90;1.30;;;;;;;;;;103559;1297;22569;-79
2022/12/31 07:57:49;;;;;;;5.30;1.50;;;;;;;;;;103514;1306;24234;-79
2022/12/31 08:00:15;;;;;;;4.30;1.40;;;;;;;;;;103392;1307;25266;-82
2022/12/31 08:02:46;;;;;;;4.70;1.40;;;;;;;;;;103418;1306;22477;-80
2022/12/31 08:05:22;;;;;;;4.30;1.30;;;;;;;;;;103384;1300;22453;-81
2022/12/31 08:08:07;;;;;;;5.40;1.50;;;;;;;;;;103464;1291;22511;-83
2022/12/31 08:10:40;;;;;;;5.50;1.20;;;;;;;;;;103547;1307;25275;-79
2022/12/31 08:13:08;;;;;;;4.20;1.40;;;;;;;;;;103514;1298;22484;-82
2022/12/31 08:15:36;;;;;;;4.70;1.20;;;;;;;;;;103498;1307;26497;-81
2022/12/31 08:18:03;;;;;;;3.40;1.00;;;;;;;;;;103455;1305;25208;-81
2022/12/31 08:20:31;;;;;;;6.30;1.80;;;;;;;;;;103462;1304;22716;-83
2022/12/31 08:23:30;;;;;;;5.50;1.80;;;;;;;;;;103499;1306;24010;-82
2022/12/31 08:26:04;;;;;;;4.30;1.20;;;;;;;;;;102981;1312;24251;-82
2022/12/31 08:28:40;;;;;;;6.00;1.60;;;;;;;;;;102976;1310;24393;-79
2022/12/31 08:31:13;;;;;;;5.80;1.70;;;;;;;;;;103184;1310;25220;-85
2022/12/31 08:34:18;;;;;;;5.20;1.30;;;;;;;;;;103181;1310;25511;-83
2022/12/31 08:36:55;;;;;;;4.20;1.30;;;;;;;;;;102459;1318;22424;-81
2022/12/31 08:39:24;;;;;;;6.60;1.40;;;;;;;;;;102357;1318;22503;-78
2022/12/31 08:41:53;;;;;;;6.70;1.80;;;;;;;;;;102371;1318;24186;-79
2022/12/31 08:44:20;;;;;;;6.00;1.40;;;;;;;;;;102274;1318;24256;-84
2022/12/31 08:46:55;;;;;;;5.00;1.40;;;;;;;;;;102467;1313;22489;-82
2022/12/31 08:49:25;;;;;;;4.90;1.20;;;;;;;;;;102380;1318;24058;-77
2022/12/31 08:51:52;;;;;;;4.50;1.20;;;;;;;;;;102110;1320;25494;-76
2022/12/31 08:54:19;;;;;;;3.30;1.20;;;;;;;;;;102218;1313;25019;-83
2022/12/31 08:56:52;;;;;;;4.70;1.60;;;;;;;;;;102368;1302;25290;-77
2022/12/31 08:59:38;;;;;;;4.60;1.60;;;;;;;;;;102216;1318;22729;-82
2022/12/31 09:02:07;;;;;;;3.90;1.40;;;;;;;;;;102574;1311;22430;-81
2022/12/31 09:04:43;;;;;;;3.70;1.40;;;;;;;;;;102835;1313;25444;-80
2022/12/31 09:07:11;;;;;;;5.00;1.40;;;;;;;;;;103005;1305;25380;-83
2022/12/31 09:09:38;;;;;;;4.80;2.00;;;;;;;;;;103485;1300;22632;-83
2022/12/31 09:12:17;;;;;;;5.90;2.30;;;;;;;;;;103621;1289;23916;-79
2022/12/31 09:14:48;;;;;;;7.00;2.10;;;;;;;;;;103738;1304;23888;-82
2022/12/31 09:17:22;;;;;;;7.50;2.20;;;;;;;;;;103520;1304;26552;-78
2022/12/31 09:19:49;;;;;;;6.70;2.00;;;;;;;;;;103510;1278;22475;-78
2022/12/31 09:22:16;;;;;;;5.10;2.20;;;;;;;;;;103659;1298;24206;-80
2022/12/31 09:24:43;;;;;;;8.20;2.60;;;;;;;;;;103386;1306;22484;-83
2022/12/31 09:27:13;;;;;;;5.30;2.30;;;;;;;;;;103365;1306;24337;-83
2022/12/31 09:29:58;;;;;;;6.50;2.40;;;;;;;;;;103394;1278;24297;-83
2022/12/31 09:32:48;;;;;;;7.40;2.90;;;;;;;;;;103489;1305;22704;-84
2022/12/31 09:35:15;;;;;;;6.90;2.40;;;;;;;;;;103510;1306;24048;-83
2022/12/31 09:37:42;;;;;;;6.90;2.60;;;;;;;;;;103424;1298;22466;-77
2022/12/31 09:40:27;;;;;;;6.50;2.20;;;;;;;;;;103312;1306;22479;-79
2022/12/31 09:43:12;;;;;;;6.30;2.60;;;;;;;;;;103208;1306;22484;-81
2022/12/31 09:45:39;;;;;;;5.70;2.10;;;;;;;;;;103295;1307;22482;-84
2022/12/31 09:48:32;;;;;;;7.00;2.40;;;;;;;;;;103242;1307;23204;-80
2022/12/31 09:51:14;;;;;;;7.80;2.80;;;;;;;;;;103140;1306;24436;-79
2022/12/31 09:53:47;;;;;;;5.30;2.10;;;;;;;;;;103448;1305;24298;-79
2022/12/31 09:56:33;;;;;;;7.10;2.80;;;;;;;;;;103444;1298;22711;-79
2022/12/31 09:59:16;;;;;;;12.20;3.70;;;;;;;;;;103466;1306;24239;-82
2022/12/31 10:01:49;;;;;;;10.00;3.10;;;;;;;;;;103428;1284;24240;-84
2022/12/31 10:04:21;;;;;;;7.50;2.90;;;;;;;;;;103282;1305;23851;-78
2022/12/31 10:06:48;;;;;;;9.50;2.70;;;;;;;;;;103399;1284;22513;-78
2022/12/31 10:09:15;;;;;;;7.60;2.80;;;;;;;;;;103490;1298;22724;-82
2022/12/31 10:11:44;;;;;;;6.40;2.60;;;;;;;;;;103448;1309;23862;-78
2022/12/31 10:14:30;;;;;;;8.60;3.00;;;;;;;;;;103306;1309;25539;-82
2022/12/31 10:17:04;;;;;;;8.20;3.60;;;;;;;;;;103292;1294;22711;-83
2022/12/31 10:19:50;;;;;;;10.50;3.80;;;;;;;;;;103193;1308;25305;-80
2022/12/31 10:22:18;;;;;;;9.50;3.70;;;;;;;;;;103412;1307;22464;-83
2022/12/31 10:25:04;;;;;;;7.70;3.10;;;;;;;;;;103434;1307;24328;-81
2022/12/31 10:27:49;;;;;;;6.00;2.60;;;;;;;;;;103489;1274;23062;-83
2022/12/31 10:30:16;;;;;;;7.00;2.70;;;;;;;;;;103498;1301;24000;-77
2022/12/31 10:32:49;;;;;;;7.70;3.10;;;;;;;;;;103443;1306;22460;-78
2022/12/31 10:35:27;;;;;;;8.70;2.50;;;;;;;;;;103210;1284;22491;-80
2022/12/31 10:37:56;;;;;;;5.70;2.30;;;;;;;;;;103140;1306;22554;-79
2022/12/31 10:40:40;;;;;;;4.40;1.70;;;;;;;;;;103471;1305;22472;-81
2022/12/31 10:43:25;;;;;;;7.50;2.70;;;;;;;;;;103392;1305;22479;-81
2022/12/31 10:46:09;;;;;;;9.00;3.00;;;;;;;;;;103361;1306;22457;-76
2022/12/31 10:48:55;;;;;;;6.80;2.40;;;;;;;;;;103456;1306;22546;-84
2022/12/31 10:51:34;;;;;;;9.60;2.40;;;;;;;;;;103472;1306;23848;-81
2022/12/31 10:54:18;;;;;;;8.20;2.40;;;;;;;;;;103379;1306;22468;-82
2022/12/31 10:56:50;;;;;;;7.50;2.40;;;;;;;;;;103526;1305;22590;-79
2022/12/31 10:59:36;;;;;;;7.20;2.40;;;;;;;;;;103498;1306;25363;-78
2022/12/31 11:02:15;;;;;;;11.40;2.70;;;;;;;;;;103365;1305;24242;-78
2022/12/31 11:05:00;;;;;;;8.20;2.60;;;;;;;;;;103440;1305;22468;-79
2022/12/31 11:07:42;;;;;;;7.10;2.40;;;;;;;;;;103479;1305;22468;-84
2022/12/31 11:10:24;;;;;;;7.20;2.30;;;;;;;;;;107068;1299;22755;-75
2022/12/31 11:13:03;;;;;;;8.60;2.60;;;;;;;;;;106974;1306;22175;-76
2022/12/31 11:15:48;;;;;;;9.20;2.50;;;;;;;;;;106804;1307;22659;-75
2022/12/31 11:18:18;;;;;;;9.00;3.10;;;;;;;;;;106976;1306;22355;-77
2022/12/31 11:20:48;;;;;;;7.50;2.50;;;;;;;;;;106888;1306;22163;-76
2022/12/31 11:23:17;;;;;;;8.00;2.70;;;;;;;;;;106985;1306;22318;-78
2022/12/31 11:25:59;;;;;;;9.30;2.50;;;;;;;;;;107264;1298;22081;-75
2022/12/31 11:28:38;;;;;;;7.80;2.50;;;;;;;;;;106897;1306;22147;-76
2022/12/31 11:31:11;;;;;;;7.40;2.90;;;;;;;;;;107241;1296;22077;-77
2022/12/31 11:33:55;;;;;;;8.40;2.70;;;;;;;;;;106928;1306;22116;-77
2022/12/31 11:36:40;;;;;;;8.10;2.50;;;;;;;;;;107086;1304;21959;-77
2022/12/31 11:39:07;;;;;;;7.20;2.80;;;;;;;;;;106929;1306;22651;-77
2022/12/31 11:41:38;;;;;;;8.50;3.10;;;;;;;;;;107072;1298;22125;-76
2022/12/31 11:44:14;;;;;;;8.60;3.00;;;;;;;;;;106995;1298;22076;-75
2022/12/31 11:46:56;;;;;;;7.90;2.90;;;;;;;;;;107284;1291;22823;-78
2022/12/31 11:49:32;;;;;;;8.30;3.20;;;;;;;;;;106992;1307;22111;-77
2022/12/31 11:51:58;;;;;;;7.90;2.80;;;;;;;;;;106996;1304;23205;-77
2022/12/31 11:54:34;;;;;;;9.90;2.80;;;;;;;;;;106979;1305;22128;-77
2022/12/31 11:57:06;;;;;;;7.40;2.40;;;;;;;;;;106866;1306;22096;-76
2022/12/31 11:59:33;;;;;;;7.40;2.50;;;;;;;;;;106977;1306;22806;-77
2022/12/31 12:02:03;;;;;;;7.30;2.80;;;;;;;;;;106936;1304;22056;-77
2022/12/31 12:04:30;;;;;;;6.40;2.40;;;;;;;;;;107002;1304;22483;-76
2022/12/31 12:06:56;;;;;;;11.20;2.90;;;;;;;;;;106933;1304;22309;-76
2022/12/31 12:09:30;;;;;;;5.90;2.50;;;;;;;;;;107151;1297;22032;-77
2022/12/31 12:11:59;;;;;;;7.50;2.10;;;;;;;;;;107051;1304;22063;-77
2022/12/31 12:14:31;;;;;;;6.10;2.20;;;;;;;;;;106893;1307;22125;-76
2022/12/31 12:16:58;;;;;;;6.50;2.60;;;;;;;;;;106897;1307;22060;-76
2022/12/31 12:19:25;;;;;;;7.10;2.60;;;;;;;;;;107047;1307;22195;-76
2022/12/31 12:21:53;;;;;;;5.90;2.20;;;;;;;;;;106912;1304;22816;-78
2022/12/31 12:24:21;;;;;;;6.10;2.10;;;;;;;;;;106966;1304;22068;-76
2022/12/31 12:26:48;;;;;;;7.40;2.30;;;;;;;;;;107042;1304;22141;-76
2022/12/31 12:29:19;;;;;;;6.00;2.00;;;;;;;;;;107111;1304;22459;-76
2022/12/31 12:31:57;;;;;;;5.60;2.30;;;;;;;;;;107269;1282;22169;-76
2022/12/31 12:34:26;;;;;;;6.90;2.10;;;;;;;;;;107186;1292;22992;-78
2022/12/31 12:36:52;;;;;;;7.60;3.10;;;;;;;;;;107171;1285;22052;-77
2022/12/31 12:39:21;;;;;;;6.00;2.30;;;;;;;;;;107144;1303;23005;-77
2022/12/31 12:41:58;;;;;;;8.10;2.90;;;;;;;;;;107245;1282;22770;-77
2022/12/31 12:44:24;;;;;;;4.60;1.80;;;;;;;;;;106956;1304;22042;-78
2022/12/31 12:46:52;;;;;;;6.90;2.70;;;;;;;;;;107067;1304;22044;-76
2022/12/31 12:49:23;;;;;;;7.70;3.00;;;;;;;;;;106925;1304;22346;-77
2022/12/31 12:51:50;;;;;;;6.70;2.80;;;;;;;;;;107087;1297;22321;-76
2022/12/31 12:54:46;;;;;;;7.00;2.40;;;;;;;;;;106901;1307;22129;-77
2022/12/31 12:57:33;;;;;;;8.90;2.70;;;;;;;;;;106901;1306;22066;-77
2022/12/31 13:00:17;;;;;;;7.90;2.70;;;;;;;;;;106944;1306;22120;-77
2022/12/31 13:02:59;;;;;;;7.30;2.80;;;;;;;;;;107009;1298;22062;-76
2022/12/31 13:05:33;;;;;;;6.80;2.40;;;;;;;;;;107116;1305;22069;-76
2022/12/31 13:08:18;;;;;;;8.20;2.60;;;;;;;;;;107101;1305;22085;-77
2022/12/31 13:10:44;;;;;;;8.70;3.30;;;;;;;;;;106979;1292;22634;-78
2022/12/31 13:13:24;;;;;;;8.60;3.40;;;;;;;;;;107013;1305;21971;-77
2022/12/31 13:15:55;;;;;;;8.80;3.60;;;;;;;;;;106891;1307;22743;-77
2022/12/31 13:18:41;;;;;;;9.90;3.90;;;;;;;;;;107154;1287;22349;-76
2022/12/31 13:21:10;;;;;;;8.50;3.40;;;;;;;;;;107297;1299;21663;-76
2022/12/31 13:23:41;;;;;;;8.40;3.00;;;;;;;;;;107261;1297;22026;-76
2022/12/31 13:26:30;;;;;;;11.30;3.90;;;;;;;;;;107302;1283;22054;-76
2022/12/31 13:28:58;;;;;;;9.80;3.70;;;;;;;;;;106990;1307;22061;-77
2022/12/31 13:31:29;;;;;;;12.30;5.00;;;;;;;;;;107003;1292;22128;-76
2022/12/31 13:33:59;;;;;;;9.20;3.30;;;;;;;;;;106909;1307;22086;-76
2022/12/31 13:36:27;;;;;;;8.00;2.90;;;;;;;;;;107121;1295;22029;-76
2022/12/31 13:38:56;;;;;;;11.40;4.00;;;;;;;;;;106908;1306;21981;-76
2022/12/31 13:41:26;;;;;;;17.00;5.50;;;;;;;;;;106991;1306;21934;-77
2022/12/31 13:44:05;;;;;;;14.20;5.00;;;;;;;;;;107033;1307;22047;-77
2022/12/31 13:46:50;;;;;;;12.20;5.20;;;;;;;;;;107334;1288;21668;-76
2022/12/31 13:49:25;;;;;;;12.60;5.20;;;;;;;;;;106906;1301;22645;-76
2022/12/31 13:51:57;;;;;;;10.40;4.40;;;;;;;;;;107002;1306;22526;-77
2022/12/31 13:54:42;;;;;;;11.60;5.20;;;;;;;;;;106929;1305;22675;-77
2022/12/31 13:57:15;;;;;;;13.00;5.80;;;;;;;;;;106982;1307;22039;-76
2022/12/31 13:59:44;;;;;;;14.90;7.00;;;;;;;;;;107130;1285;22651;-76
2022/12/31 14:02:14;;;;;;;9.20;4.10;;;;;;;;;;106828;1307;22010;-77
2022/12/31 14:04:44;;;;;;;8.10;3.40;;;;;;;;;;106960;1307;21978;-77
2022/12/31 14:07:17;;;;;;;8.10;3.60;;;;;;;;;;106939;1306;22699;-77
2022/12/31 14:09:45;;;;;;;9.80;4.10;;;;;;;;;;107030;1306;22762;-77
2022/12/31 14:12:26;;;;;;;9.70;3.80;;;;;;;;;;107021;1306;22049;-78
2022/12/31 14:15:01;;;;;;;12.40;5.10;;;;;;;;;;106963;1298;22074;-77
2022/12/31 14:17:37;;;;;;;12.20;4.40;;;;;;;;;;106851;1307;22751;-78
2022/12/31 14:20:17;;;;;;;12.20;5.00;;;;;;;;;;106939;1306;22887;-77
2022/12/31 14:22:56;;;;;;;9.80;4.10;;;;;;;;;;106865;1307;22072;-77
2022/12/31 14:25:26;;;;;;;13.50;5.70;;;;;;;;;;107008;1305;22069;-77
2022/12/31 14:27:54;;;;;;;9.30;4.00;;;;;;;;;;106944;1307;22253;-77
2022/12/31 14:30:22;;;;;;;11.40;4.30;;;;;;;;;;107319;1292;22644;-77
2022/12/31 14:32:48;;;;;;;11.00;4.30;;;;;;;;;;106891;1298;22081;-77
2022/12/31 14:35:27;;;;;;;15.50;7.00;;;;;;;;;;106950;1297;22087;-77
2022/12/31 14:37:57;;;;;;;11.50;4.80;;;;;;;;;;106930;1307;22062;-76
2022/12/31 14:40:33;;;;;;;9.10;3.40;;;;;;;;;;106869;1307;22089;-77
2022/12/31 14:43:06;;;;;;;9.80;3.80;;;;;;;;;;106834;1307;22176;-77
2022/12/31 14:45:35;;;;;;;10.00;4.00;;;;;;;;;;107088;1297;22100;-78
2022/12/31 14:48:08;;;;;;;8.50;3.70;;;;;;;;;;107044;1305;22760;-77
2022/12/31 14:50:36;;;;;;;11.00;4.30;;;;;;;;;;107033;1305;22056;-77
2022/12/31 14:53:05;;;;;;;9.00;3.10;;;;;;;;;;106931;1301;21984;-77
2022/12/31 14:55:33;;;;;;;9.00;3.70;;;;;;;;;;106970;1305;22145;-77
2022/12/31 14:58:01;;;;;;;9.90;3.90;;;;;;;;;;106888;1307;21966;-77
2022/12/31 15:00:30;;;;;;;12.40;4.80;;;;;;;;;;107069;1294;22132;-77
2022/12/31 15:03:05;;;;;;;11.10;4.10;;;;;;;;;;106747;1307;22059;-77
2022/12/31 15:05:33;;;;;;;12.30;5.30;;;;;;;;;;106846;1307;22133;-77